Аэропорт
Угольный (UHMA)

 UHMA / DYR
ЗЦ Хабаровск
Магадан (UHMM)
Магадан (UHMM)
 64.73490, 177.74100  / 194 ft

 UHMA 251100Z VRB01MPS CAVOK 12/10 Q1009 R01/////// NOSIG RMK TDZ R01/11001MPS END R01/14002MPS QFE753/1004
 TAF UHMA 250740Z 2509/2609 25003G08MPS 9999 SCT020 TEMPO 2509/2609 18007MPS 5000 -SHRA BR SCT007 BKN025CB
UHMA_AIP_0217
показать схемы
Название сценария Тип сценария Flight Simulator 9 Flight Simulator X Prepar3D v2 Prepar3D v3 Prepar3D v4 xPlane
uhma-scenery-fs9-1003 бесплатный
uhma-scenery-fsx-1308 бесплатный


2019 © VATRUS division (Privacy Policy)